createdAt,value
2022-10-20T00:00:43.889Z,46.42
2022-10-20T00:03:47.981Z,46.52
2022-10-20T00:06:51.048Z,46.97
2022-10-20T00:09:54.104Z,47.67
2022-10-20T00:12:57.213Z,48.34
2022-10-20T00:16:01.987Z,49.35
2022-10-20T00:19:05.527Z,49.59
2022-10-20T00:22:08.763Z,49.83
2022-10-20T00:25:11.777Z,50.38
2022-10-20T00:28:14.981Z,50.29
2022-10-20T00:31:21.043Z,51.60
2022-10-20T00:34:24.137Z,51.20
2022-10-20T00:37:27.205Z,51.79
2022-10-20T00:40:30.306Z,51.85
2022-10-20T00:43:48.609Z,51.86
2022-10-20T00:46:53.558Z,52.25
2022-10-20T00:50:08.402Z,52.33
2022-10-20T00:53:12.449Z,52.49
2022-10-20T00:56:15.772Z,52.50
2022-10-20T00:59:23.009Z,52.52
2022-10-20T01:02:27.893Z,53.01
2022-10-20T01:05:31.101Z,52.82
2022-10-20T01:08:34.300Z,52.85
2022-10-20T01:11:44.083Z,52.68
2022-10-20T01:14:56.440Z,52.95
2022-10-20T01:18:09.919Z,53.53
2022-10-20T01:21:48.953Z,53.84
2022-10-20T01:25:07.632Z,53.90
2022-10-20T01:28:18.242Z,54.28
2022-10-20T01:31:30.818Z,54.60
2022-10-20T01:34:40.169Z,54.30
2022-10-20T01:37:49.560Z,54.14
2022-10-20T01:40:59.634Z,54.60
2022-10-20T01:44:07.102Z,54.92
2022-10-20T01:47:11.738Z,54.71
2022-10-20T01:50:16.948Z,55.38
2022-10-20T01:53:21.295Z,55.36
2022-10-20T01:56:31.215Z,55.54
2022-10-20T01:59:46.988Z,56.05
2022-10-20T02:03:13.434Z,56.19
2022-10-20T02:06:26.209Z,56.18
2022-10-20T02:09:37.760Z,57.22
2022-10-20T02:12:44.226Z,56.82
2022-10-20T02:15:52.628Z,56.42
2022-10-20T02:18:56.635Z,57.05
2022-10-20T02:21:59.845Z,57.39
2022-10-20T02:25:03.153Z,57.55
2022-10-20T02:28:10.160Z,57.99
2022-10-20T02:31:14.931Z,57.84
2022-10-20T02:34:18.034Z,58.81
2022-10-20T02:37:21.182Z,58.36
2022-10-20T02:40:24.822Z,59.41
2022-10-20T02:43:27.909Z,59.03
2022-10-20T02:46:32.502Z,59.37
2022-10-20T02:49:35.582Z,59.13
2022-10-20T02:52:38.681Z,59.26
2022-10-20T02:55:43.713Z,60.33
2022-10-20T02:58:46.790Z,60.46
2022-10-20T03:01:52.750Z,60.45
2022-10-20T03:04:55.868Z,60.46
2022-10-20T03:07:59.017Z,60.39
2022-10-20T03:11:02.109Z,60.72
2022-10-20T03:14:05.218Z,60.39
2022-10-20T03:17:09.886Z,60.31
2022-10-20T03:20:13.203Z,60.14
2022-10-20T03:23:17.840Z,60.18
2022-10-20T03:26:23.184Z,60.24
2022-10-20T03:29:26.259Z,60.38
2022-10-20T03:32:30.763Z,60.53
2022-10-20T03:35:34.165Z,61.21
2022-10-20T03:38:37.317Z,60.74
2022-10-20T03:41:40.443Z,61.13
2022-10-20T03:44:45.059Z,61.11
2022-10-20T03:47:49.961Z,61.15
2022-10-20T03:50:53.010Z,61.10
2022-10-20T03:53:56.080Z,61.64
2022-10-20T03:56:59.187Z,61.17
2022-10-20T04:00:02.242Z,61.47
2022-10-20T04:03:16.171Z,61.46
2022-10-20T04:06:19.407Z,60.96
2022-10-20T04:09:22.479Z,61.30
2022-10-20T04:12:26.498Z,61.49
2022-10-20T04:15:29.771Z,61.47
2022-10-20T04:18:34.253Z,62.04
2022-10-20T04:21:37.331Z,61.89
2022-10-20T04:24:40.573Z,61.14
2022-10-20T04:27:43.701Z,61.01
2022-10-20T04:30:47.811Z,60.77
2022-10-20T04:33:52.247Z,61.48
2022-10-20T04:36:55.308Z,60.07
2022-10-20T04:39:58.761Z,60.52
2022-10-20T04:43:01.892Z,59.79
2022-10-20T04:46:08.477Z,60.20
2022-10-20T04:49:13.612Z,60.07
2022-10-20T04:52:17.333Z,59.84
2022-10-20T04:55:20.494Z,59.57
2022-10-20T04:58:23.918Z,59.77
2022-10-20T05:01:29.685Z,59.43
2022-10-20T05:04:34.182Z,59.55
2022-10-20T05:07:37.553Z,58.74
2022-10-20T05:10:40.940Z,58.66
2022-10-20T05:13:44.472Z,58.71
2022-10-20T05:16:47.498Z,58.19
2022-10-20T05:19:51.998Z,57.99
2022-10-20T05:22:55.030Z,58.63
2022-10-20T05:25:58.118Z,58.44
2022-10-20T05:29:02.305Z,58.47
2022-10-20T05:32:05.907Z,58.28
2022-10-20T05:35:10.803Z,58.29
2022-10-20T05:38:13.881Z,58.70
2022-10-20T05:41:18.807Z,57.87
2022-10-20T05:44:22.079Z,57.25
2022-10-20T05:47:25.324Z,56.83
2022-10-20T05:50:30.821Z,56.11
2022-10-20T05:53:33.940Z,55.69
2022-10-20T05:56:37.093Z,55.14
2022-10-20T05:59:40.238Z,54.50
2022-10-20T06:02:43.375Z,54.56
2022-10-20T06:05:48.061Z,53.38
2022-10-20T06:08:54.239Z,53.72
2022-10-20T06:11:57.380Z,53.25
2022-10-20T06:15:00.574Z,52.09
2022-10-20T06:18:03.667Z,52.30
2022-10-20T06:21:12.332Z,52.15
2022-10-20T06:24:16.642Z,51.30
2022-10-20T06:27:19.787Z,51.16
2022-10-20T06:30:25.194Z,51.31
2022-10-20T06:33:31.322Z,50.84
2022-10-20T06:36:38.069Z,49.71
2022-10-20T06:39:41.230Z,49.68
2022-10-20T06:42:44.332Z,49.06
2022-10-20T06:45:55.393Z,48.54
2022-10-20T06:49:01.296Z,47.69
2022-10-20T06:52:06.143Z,47.18
2022-10-20T06:55:10.311Z,47.07
2022-10-20T06:58:13.510Z,46.62
2022-10-20T07:01:18.039Z,45.46
2022-10-20T07:04:21.152Z,44.32
2022-10-20T07:07:25.682Z,44.23
2022-10-20T07:10:28.803Z,44.54
2022-10-20T07:13:33.240Z,44.08
2022-10-20T07:16:38.543Z,44.02
2022-10-20T07:19:41.753Z,44.17
2022-10-20T07:22:46.366Z,43.75
2022-10-20T07:25:51.359Z,43.99
2022-10-20T07:28:57.585Z,43.39
2022-10-20T07:32:02.071Z,43.04
2022-10-20T07:35:06.021Z,42.65
2022-10-20T07:38:10.571Z,41.96
2022-10-20T07:41:14.163Z,41.64
2022-10-20T07:44:17.490Z,42.84
2022-10-20T07:47:21.149Z,42.10
2022-10-20T07:50:28.018Z,41.82
2022-10-20T07:53:32.656Z,42.81
2022-10-20T07:56:37.852Z,41.53
2022-10-20T07:59:41.140Z,41.89
2022-10-20T08:02:45.625Z,41.08
2022-10-20T08:05:48.856Z,40.16
2022-10-20T08:08:53.748Z,40.05
2022-10-20T08:11:56.934Z,39.63
2022-10-20T08:15:12.503Z,39.75
2022-10-20T08:18:23.172Z,38.98
2022-10-20T08:21:26.469Z,39.16
2022-10-20T08:24:31.744Z,38.76
2022-10-20T08:27:34.906Z,38.48
2022-10-20T08:30:38.524Z,38.33
2022-10-20T08:33:41.998Z,37.65
2022-10-20T08:36:45.248Z,37.40
2022-10-20T08:39:49.797Z,36.44
2022-10-20T08:42:53.689Z,35.48
2022-10-20T08:45:57.069Z,35.43
2022-10-20T08:49:00.932Z,35.45
2022-10-20T08:52:04.408Z,35.59
2022-10-20T08:58:28.377Z,35.58
2022-10-20T09:01:35.835Z,34.59
2022-10-20T09:04:45.914Z,35.02
2022-10-20T09:07:50.226Z,34.17
2022-10-20T09:10:56.465Z,34.67
2022-10-20T09:13:59.739Z,35.11
2022-10-20T09:17:03.342Z,34.51
2022-10-20T09:20:13.339Z,34.44
2022-10-20T09:23:39.419Z,34.07
2022-10-20T09:26:58.046Z,33.45
2022-10-20T09:30:15.796Z,32.92
2022-10-20T09:33:26.256Z,33.46
2022-10-20T09:36:32.691Z,33.37
2022-10-20T09:39:43.482Z,32.74
2022-10-20T09:42:52.010Z,32.51
2022-10-20T09:45:57.683Z,32.08
2022-10-20T09:49:00.963Z,31.83
2022-10-20T09:52:17.219Z,31.98
2022-10-20T09:55:27.668Z,31.88
2022-10-20T09:58:34.882Z,31.78
2022-10-20T10:01:54.585Z,32.20
2022-10-20T10:05:15.939Z,31.29
2022-10-20T10:08:20.082Z,31.02
2022-10-20T10:11:34.201Z,30.25
2022-10-20T10:14:40.267Z,30.14
2022-10-20T10:17:44.695Z,30.52
2022-10-20T10:20:48.001Z,29.52
2022-10-20T10:23:53.344Z,29.64
2022-10-20T10:26:57.788Z,30.08
2022-10-20T10:30:27.779Z,30.24
2022-10-20T10:33:33.157Z,30.74
2022-10-20T10:36:37.914Z,30.22
2022-10-20T10:39:42.793Z,29.82
2022-10-20T10:43:12.994Z,29.78
2022-10-20T10:46:21.129Z,29.88
2022-10-20T10:49:42.373Z,30.24
2022-10-20T10:52:56.897Z,30.22
2022-10-20T10:56:10.155Z,31.04
2022-10-20T10:59:19.194Z,30.77
2022-10-20T11:03:10.030Z,30.05
2022-10-20T11:06:20.531Z,30.38
2022-10-20T11:09:34.216Z,30.10
2022-10-20T11:12:50.912Z,30.07
2022-10-20T11:16:03.081Z,30.20
2022-10-20T11:19:35.546Z,29.52
2022-10-20T11:22:47.805Z,29.37
2022-10-20T11:25:55.967Z,29.50
2022-10-20T11:28:59.883Z,29.09
2022-10-20T11:32:13.165Z,29.13
2022-10-20T11:35:29.181Z,28.81
2022-10-20T11:38:40.498Z,28.99
2022-10-20T11:41:49.385Z,29.31
2022-10-20T11:44:53.706Z,29.13
2022-10-20T11:48:02.971Z,28.70
2022-10-20T11:51:30.497Z,28.99
2022-10-20T11:54:48.222Z,28.98
2022-10-20T11:58:04.409Z,29.43
2022-10-20T12:01:45.266Z,28.61
2022-10-20T12:05:16.495Z,29.08
2022-10-20T12:08:37.395Z,28.98
2022-10-20T12:11:50.498Z,28.82
2022-10-20T12:14:59.452Z,28.76
2022-10-20T12:18:06.628Z,29.38
2022-10-20T12:21:11.801Z,28.66
2022-10-20T12:24:37.980Z,28.88
2022-10-20T12:27:41.196Z,29.07
2022-10-20T12:30:46.462Z,28.89
2022-10-20T12:34:03.873Z,28.93
2022-10-20T12:37:18.066Z,29.05
2022-10-20T12:40:27.698Z,28.69
2022-10-20T12:43:38.676Z,28.69
2022-10-20T12:46:44.858Z,30.36
2022-10-20T12:49:57.943Z,29.67
2022-10-20T12:53:15.155Z,30.16
2022-10-20T12:56:22.304Z,29.53
2022-10-20T12:59:40.837Z,29.85
2022-10-20T13:02:51.732Z,30.22
2022-10-20T13:05:54.891Z,29.55
2022-10-20T13:09:22.602Z,29.57
2022-10-20T13:12:30.643Z,29.27
2022-10-20T13:15:37.982Z,29.24
2022-10-20T13:18:47.304Z,29.04
2022-10-20T13:21:51.668Z,29.12
2022-10-20T13:24:56.758Z,29.56
2022-10-20T13:28:07.859Z,30.11
2022-10-20T13:31:22.091Z,29.15
2022-10-20T13:34:31.926Z,29.33
2022-10-20T13:37:51.813Z,28.77
2022-10-20T13:41:03.179Z,28.21
2022-10-20T13:44:16.597Z,28.51
2022-10-20T13:47:36.897Z,28.38
2022-10-20T13:50:43.738Z,28.49
2022-10-20T13:53:50.176Z,28.97
2022-10-20T13:56:53.951Z,29.03
2022-10-20T14:00:00.575Z,28.81
2022-10-20T14:03:07.346Z,28.62
2022-10-20T14:06:35.641Z,28.97
2022-10-20T14:09:40.685Z,29.45
2022-10-20T14:12:47.218Z,29.18
2022-10-20T14:15:55.212Z,29.97
2022-10-20T14:19:02.945Z,30.06
2022-10-20T14:22:14.197Z,29.73
2022-10-20T14:25:18.138Z,30.13
2022-10-20T14:28:23.366Z,29.85
2022-10-20T14:31:28.369Z,30.35
2022-10-20T14:34:36.037Z,30.48
2022-10-20T14:37:41.721Z,30.37
2022-10-20T14:40:51.828Z,30.17
2022-10-20T14:44:03.380Z,30.70
2022-10-20T14:47:15.158Z,30.88
2022-10-20T14:50:24.402Z,31.05
2022-10-20T14:53:32.420Z,30.96
2022-10-20T14:56:43.951Z,31.75
2022-10-20T14:59:53.837Z,31.54
2022-10-20T15:03:01.672Z,31.87
2022-10-20T15:06:05.733Z,32.06
2022-10-20T15:09:19.527Z,32.19
2022-10-20T15:12:34.655Z,32.06
2022-10-20T15:15:39.563Z,32.39
2022-10-20T15:18:44.216Z,32.63
2022-10-20T15:21:48.181Z,32.66
2022-10-20T15:24:51.463Z,32.88
2022-10-20T15:27:56.451Z,33.10
2022-10-20T15:31:01.313Z,33.19
2022-10-20T15:34:05.933Z,33.62
2022-10-20T15:37:09.978Z,33.98
2022-10-20T15:40:13.706Z,34.13
2022-10-20T15:43:19.408Z,34.59
2022-10-20T15:46:23.066Z,34.91
2022-10-20T15:49:27.654Z,35.59
2022-10-20T15:52:30.834Z,35.97
2022-10-20T15:55:35.815Z,36.05
2022-10-20T15:58:39.943Z,36.15
2022-10-20T16:01:43.644Z,36.22
2022-10-20T16:04:48.229Z,36.98
2022-10-20T16:07:53.142Z,37.02
2022-10-20T16:10:56.873Z,37.32
2022-10-20T16:14:00.127Z,37.42
2022-10-20T16:17:03.589Z,37.56
2022-10-20T16:20:09.639Z,37.82
2022-10-20T16:23:12.848Z,38.09
2022-10-20T16:26:16.252Z,38.26
2022-10-20T16:29:19.493Z,38.20
2022-10-20T16:32:22.686Z,38.08
2022-10-20T16:35:27.319Z,38.02
2022-10-20T16:38:30.596Z,38.08
2022-10-20T16:41:33.828Z,38.89
2022-10-20T16:44:37.026Z,38.66
2022-10-20T16:47:40.402Z,39.92
2022-10-20T16:50:45.127Z,39.41
2022-10-20T16:53:48.460Z,39.95
2022-10-20T16:56:51.739Z,39.77
2022-10-20T16:59:54.853Z,40.43
2022-10-20T17:02:58.134Z,40.05
2022-10-20T17:06:04.774Z,39.95
2022-10-20T17:09:08.196Z,40.84
2022-10-20T17:12:11.517Z,41.01
2022-10-20T17:15:14.711Z,40.93
2022-10-20T17:18:18.005Z,41.37
2022-10-20T17:21:22.708Z,41.51
2022-10-20T17:24:25.893Z,41.34
2022-10-20T17:27:29.043Z,41.41
2022-10-20T17:30:32.307Z,42.61
2022-10-20T17:33:35.474Z,42.97
2022-10-20T17:36:40.114Z,42.72
2022-10-20T17:39:43.282Z,42.70
2022-10-20T17:42:46.483Z,42.59
2022-10-20T17:45:57.876Z,42.55
2022-10-20T17:49:02.173Z,42.72
2022-10-20T17:52:06.899Z,42.96
2022-10-20T17:55:10.439Z,42.42
2022-10-20T17:58:13.639Z,43.06
2022-10-20T18:01:19.172Z,42.95
2022-10-20T18:04:22.443Z,43.08
2022-10-20T18:07:27.624Z,42.99
2022-10-20T18:10:30.858Z,42.95
2022-10-20T18:13:34.090Z,43.73
2022-10-20T18:16:39.635Z,43.80
2022-10-20T18:19:43.837Z,43.74
2022-10-20T18:22:48.402Z,43.88
2022-10-20T18:25:51.567Z,43.89
2022-10-20T18:28:54.909Z,44.40
2022-10-20T18:31:58.098Z,44.53
2022-10-20T18:35:02.356Z,45.01
2022-10-20T18:38:07.004Z,45.57
2022-10-20T18:41:12.499Z,44.88
2022-10-20T18:44:17.338Z,45.29
2022-10-20T18:47:20.612Z,45.21
2022-10-20T18:50:23.835Z,45.68
2022-10-20T18:53:29.767Z,46.30
2022-10-20T18:56:33.163Z,46.45
2022-10-20T18:59:36.358Z,46.63
2022-10-20T19:02:39.623Z,46.47
2022-10-20T19:05:42.932Z,46.52
2022-10-20T19:08:52.694Z,46.61
2022-10-20T19:11:56.021Z,47.57
2022-10-20T19:14:59.224Z,46.50
2022-10-20T19:18:02.437Z,46.81
2022-10-20T19:21:07.241Z,48.54
2022-10-20T19:24:15.358Z,47.70
2022-10-20T19:27:26.691Z,47.76
2022-10-20T19:30:35.431Z,48.45
2022-10-20T19:33:38.642Z,48.40
2022-10-20T19:36:42.797Z,48.46
2022-10-20T19:39:47.435Z,48.32
2022-10-20T19:42:50.665Z,49.27
2022-10-20T19:45:53.896Z,50.43
2022-10-20T19:48:57.497Z,49.28
2022-10-20T19:52:01.032Z,49.70
2022-10-20T19:55:06.191Z,49.76
2022-10-20T20:01:18.834Z,51.51
2022-10-20T20:04:22.604Z,51.77
2022-10-20T20:07:25.837Z,51.88
2022-10-20T20:10:30.544Z,52.31
2022-10-20T20:13:33.785Z,52.65
2022-10-20T20:16:37.309Z,52.20
2022-10-20T20:19:40.859Z,52.07
2022-10-20T20:22:44.082Z,52.73
2022-10-20T20:25:48.751Z,53.57
2022-10-20T20:28:53.843Z,53.92
2022-10-20T20:31:57.015Z,53.62
2022-10-20T20:35:00.355Z,53.99
2022-10-20T20:38:03.711Z,54.18
2022-10-20T20:41:10.423Z,53.76
2022-10-20T20:44:16.143Z,54.06
2022-10-20T20:47:19.306Z,53.40
2022-10-20T20:50:22.547Z,55.15
2022-10-20T20:53:26.028Z,54.42
2022-10-20T20:56:30.869Z,54.78
2022-10-20T20:59:34.058Z,55.59
2022-10-20T21:02:37.366Z,55.25
2022-10-20T21:05:40.574Z,54.96
2022-10-20T21:08:46.461Z,54.58
2022-10-20T21:11:51.102Z,55.77
2022-10-20T21:14:54.203Z,55.58
2022-10-20T21:17:57.385Z,55.33
2022-10-20T21:21:06.875Z,56.43
2022-10-20T21:24:11.473Z,56.11
2022-10-20T21:27:15.922Z,57.51
2022-10-20T21:30:19.123Z,56.33
2022-10-20T21:33:22.394Z,55.98
2022-10-20T21:36:26.511Z,55.89
2022-10-20T21:42:34.133Z,56.55
2022-10-20T21:45:37.466Z,56.31
2022-10-20T21:48:40.635Z,57.88
2022-10-20T21:51:46.405Z,57.96
2022-10-20T21:54:49.553Z,57.87
2022-10-20T21:57:54.084Z,57.95
2022-10-20T22:00:57.344Z,58.75
2022-10-20T22:04:00.457Z,58.83
2022-10-20T22:07:03.645Z,59.05
2022-10-20T22:10:07.613Z,59.03
2022-10-20T22:13:12.126Z,58.49
2022-10-20T22:16:17.514Z,59.39
2022-10-20T22:19:23.312Z,59.15
2022-10-20T22:22:27.693Z,59.59
2022-10-20T22:25:30.811Z,60.45
2022-10-20T22:28:35.342Z,59.86
2022-10-20T22:31:38.715Z,59.64
2022-10-20T22:34:41.829Z,60.20
2022-10-20T22:37:45.015Z,59.72
2022-10-20T22:40:48.275Z,60.12
2022-10-20T22:43:53.065Z,59.64
2022-10-20T22:46:56.262Z,59.68
2022-10-20T22:49:59.460Z,58.87
2022-10-20T22:53:02.638Z,59.26
2022-10-20T22:56:07.647Z,59.21
2022-10-20T22:59:12.266Z,58.54
2022-10-20T23:02:15.434Z,59.06
2022-10-20T23:05:18.807Z,59.00
2022-10-20T23:08:22.012Z,58.60
2022-10-20T23:11:25.446Z,58.50
2022-10-20T23:14:29.973Z,58.79
2022-10-20T23:17:33.277Z,60.00
2022-10-20T23:20:36.498Z,59.95
2022-10-20T23:23:39.913Z,59.52
2022-10-20T23:26:43.570Z,59.94
2022-10-20T23:29:48.175Z,59.61
2022-10-20T23:32:51.371Z,59.42
2022-10-20T23:35:54.579Z,59.58
2022-10-20T23:38:57.783Z,60.16
2022-10-20T23:42:04.784Z,59.43
2022-10-20T23:45:12.600Z,59.02
2022-10-20T23:48:15.818Z,59.98
2022-10-20T23:51:19.039Z,58.91
2022-10-20T23:54:22.406Z,58.22
2022-10-20T23:57:25.609Z,57.64
